createdAt,value
2023-03-26T00:00:00.568Z,66.16
2023-03-26T00:01:05.704Z,65.99
2023-03-26T00:02:07.422Z,66.24
2023-03-26T00:03:10.629Z,66.15
2023-03-26T00:04:12.444Z,66.24
2023-03-26T00:05:14.909Z,66.04
2023-03-26T00:06:16.881Z,65.99
2023-03-26T00:07:18.557Z,65.91
2023-03-26T00:08:20.161Z,66.02
2023-03-26T00:09:21.808Z,65.98
2023-03-26T00:10:23.419Z,65.93
2023-03-26T00:11:27.607Z,65.65
2023-03-26T00:12:29.299Z,65.73
2023-03-26T00:13:32.216Z,65.64
2023-03-26T00:14:35.430Z,65.58
2023-03-26T00:15:37.116Z,65.69
2023-03-26T00:16:38.800Z,65.59
2023-03-26T00:17:40.445Z,65.61
2023-03-26T00:18:42.641Z,65.57
2023-03-26T00:19:44.266Z,65.75
2023-03-26T00:20:45.931Z,65.79
2023-03-26T00:21:48.456Z,65.84
2023-03-26T00:22:51.012Z,65.96
2023-03-26T00:23:53.618Z,65.85
2023-03-26T00:24:56.954Z,65.97
2023-03-26T00:25:58.683Z,66.02
2023-03-26T00:27:01.152Z,66.07
2023-03-26T00:28:03.869Z,66.19
2023-03-26T00:29:07.040Z,66.31
2023-03-26T00:30:09.280Z,66.38
2023-03-26T00:31:12.951Z,66.59
2023-03-26T00:32:14.610Z,66.63
2023-03-26T00:33:21.864Z,66.71
2023-03-26T00:34:25.011Z,66.96
2023-03-26T00:35:26.659Z,66.84
2023-03-26T00:36:28.364Z,66.93
2023-03-26T00:37:30.405Z,66.95
2023-03-26T00:38:33.721Z,67.13
2023-03-26T00:39:39.364Z,67.10
2023-03-26T00:40:44.088Z,67.11
2023-03-26T00:41:45.772Z,67.15
2023-03-26T00:42:47.540Z,67.10
2023-03-26T00:43:50.710Z,67.30
2023-03-26T00:44:57.721Z,67.41
2023-03-26T00:45:59.426Z,67.39
2023-03-26T00:47:01.070Z,67.43
2023-03-26T00:48:02.924Z,67.29
2023-03-26T00:49:04.973Z,67.64
2023-03-26T00:50:08.425Z,67.79
2023-03-26T00:51:10.704Z,67.81
2023-03-26T00:52:12.558Z,67.75
2023-03-26T00:53:14.949Z,67.81
2023-03-26T00:54:16.614Z,67.89
2023-03-26T00:55:18.212Z,67.98
2023-03-26T00:56:19.838Z,68.02
2023-03-26T00:57:35.573Z,67.96
2023-03-26T00:58:37.961Z,67.91
2023-03-26T00:59:40.544Z,67.95
2023-03-26T01:00:57.399Z,67.92
2023-03-26T01:01:59.043Z,67.89
2023-03-26T01:03:01.975Z,67.87
2023-03-26T01:04:34.792Z,67.98
2023-03-26T01:05:46.848Z,67.89
2023-03-26T01:06:48.757Z,67.83
2023-03-26T01:07:50.383Z,67.82
2023-03-26T01:08:54.726Z,67.73
2023-03-26T01:09:58.306Z,67.58
2023-03-26T01:11:03.512Z,67.54
2023-03-26T01:12:06.833Z,67.67
2023-03-26T01:13:08.814Z,67.61
2023-03-26T01:14:13.595Z,67.49
2023-03-26T01:15:15.388Z,67.57
2023-03-26T01:16:29.498Z,67.38
2023-03-26T01:17:34.270Z,67.35
2023-03-26T01:18:41.051Z,67.27
2023-03-26T01:19:45.783Z,67.23
2023-03-26T01:20:49.818Z,67.17
2023-03-26T01:21:51.439Z,67.09
2023-03-26T01:22:54.900Z,67.08
2023-03-26T01:24:01.140Z,67.00
2023-03-26T01:25:03.797Z,66.96
2023-03-26T01:26:21.254Z,66.88
2023-03-26T01:27:54.752Z,66.93
2023-03-26T01:28:57.432Z,66.74
2023-03-26T01:30:13.319Z,66.53
2023-03-26T01:31:29.870Z,66.54
2023-03-26T01:32:48.712Z,66.29
2023-03-26T01:33:54.869Z,66.17
2023-03-26T01:35:12.582Z,66.10
2023-03-26T01:36:21.906Z,65.97
2023-03-26T01:37:27.274Z,65.97
2023-03-26T01:38:37.718Z,66.03
2023-03-26T01:39:49.624Z,66.03
2023-03-26T01:41:06.460Z,66.05
2023-03-26T01:42:11.328Z,65.99
2023-03-26T01:43:27.888Z,65.94
2023-03-26T01:44:41.531Z,66.03
2023-03-26T01:45:43.815Z,65.96
2023-03-26T01:46:45.607Z,66.10
2023-03-26T01:47:47.259Z,66.06
2023-03-26T01:48:48.893Z,66.10
2023-03-26T01:49:50.595Z,65.96
2023-03-26T01:50:56.314Z,65.97
2023-03-26T01:51:58.176Z,66.08
2023-03-26T01:52:59.873Z,66.13
2023-03-26T01:54:02.307Z,66.04
2023-03-26T01:55:04.328Z,65.93
2023-03-26T01:56:10.934Z,65.90
2023-03-26T01:57:15.678Z,65.93
2023-03-26T01:58:28.708Z,65.60
2023-03-26T01:59:42.084Z,65.58
2023-03-26T02:01:08.224Z,65.48
2023-03-26T02:02:28.005Z,65.56
2023-03-26T02:03:38.571Z,65.64
2023-03-26T02:05:13.943Z,65.52
2023-03-26T02:06:22.852Z,65.64
2023-03-26T02:07:38.101Z,65.44
2023-03-26T02:08:59.201Z,65.40
2023-03-26T02:10:30.621Z,65.36
2023-03-26T02:11:35.732Z,65.35
2023-03-26T02:12:37.820Z,65.21
2023-03-26T02:13:42.977Z,65.10
2023-03-26T02:14:44.636Z,65.03
2023-03-26T02:16:07.606Z,64.90
2023-03-26T02:17:10.905Z,64.95
2023-03-26T02:18:13.566Z,64.74
2023-03-26T02:19:21.836Z,64.60
2023-03-26T02:20:23.734Z,64.63
2023-03-26T02:21:26.272Z,64.61
2023-03-26T02:22:30.030Z,64.61
2023-03-26T02:23:35.895Z,64.69
2023-03-26T02:24:38.646Z,64.42
2023-03-26T02:25:42.087Z,64.46
2023-03-26T02:26:43.713Z,64.51
2023-03-26T02:27:45.448Z,64.70
2023-03-26T02:28:47.154Z,64.71
2023-03-26T02:29:50.310Z,64.83
2023-03-26T02:30:52.534Z,64.92
2023-03-26T02:31:54.278Z,64.88
2023-03-26T02:32:59.353Z,64.87
2023-03-26T02:34:01.267Z,65.00
2023-03-26T02:35:03.150Z,64.99
2023-03-26T02:36:06.141Z,64.99
2023-03-26T02:37:08.083Z,65.06
2023-03-26T02:38:10.613Z,65.10
2023-03-26T02:39:14.377Z,65.19
2023-03-26T02:40:17.362Z,65.19
2023-03-26T02:41:18.954Z,65.37
2023-03-26T02:42:20.566Z,65.23
2023-03-26T02:43:22.449Z,65.33
2023-03-26T02:44:24.147Z,65.37
2023-03-26T02:45:25.827Z,65.39
2023-03-26T02:46:27.472Z,65.33
2023-03-26T02:47:29.167Z,65.35
2023-03-26T02:48:31.552Z,65.44
2023-03-26T02:49:34.047Z,65.55
2023-03-26T02:50:36.883Z,65.52
2023-03-26T02:51:38.535Z,65.70
2023-03-26T02:52:40.227Z,65.70
2023-03-26T02:53:41.875Z,65.66
2023-03-26T02:54:43.510Z,65.71
2023-03-26T02:55:45.112Z,65.58
2023-03-26T02:56:46.742Z,65.82
2023-03-26T02:57:48.360Z,66.17
2023-03-26T02:58:50.039Z,66.20
2023-03-26T02:59:52.903Z,66.30
2023-03-26T03:00:55.184Z,66.14
2023-03-26T03:01:56.925Z,66.21
2023-03-26T03:02:58.582Z,66.60
2023-03-26T03:04:01.760Z,66.43
2023-03-26T03:05:05.839Z,66.38
2023-03-26T03:06:09.162Z,66.41
2023-03-26T03:07:14.457Z,66.56
2023-03-26T03:08:18.344Z,66.56
2023-03-26T03:09:20.201Z,66.64
2023-03-26T03:10:22.083Z,67.19
2023-03-26T03:11:25.068Z,67.58
2023-03-26T03:12:26.760Z,67.95
2023-03-26T03:13:28.653Z,68.57
2023-03-26T03:14:31.654Z,69.00
2023-03-26T03:15:33.458Z,69.44
2023-03-26T03:16:35.193Z,69.91
2023-03-26T03:17:36.903Z,70.19
2023-03-26T03:18:38.580Z,70.48
2023-03-26T03:19:40.317Z,70.50
2023-03-26T03:20:41.945Z,70.59
2023-03-26T03:21:43.609Z,70.70
2023-03-26T03:22:45.441Z,71.14
2023-03-26T03:23:47.065Z,71.25
2023-03-26T03:24:48.728Z,71.72
2023-03-26T03:25:52.722Z,71.80
2023-03-26T03:26:56.950Z,71.91
2023-03-26T03:27:58.899Z,72.05
2023-03-26T03:29:00.776Z,72.03
2023-03-26T03:30:02.934Z,72.07
2023-03-26T03:31:05.278Z,72.04
2023-03-26T03:32:06.980Z,72.17
2023-03-26T03:33:08.614Z,72.38
2023-03-26T03:34:10.350Z,72.10
2023-03-26T03:35:11.997Z,72.41
2023-03-26T03:36:20.566Z,72.31
2023-03-26T03:37:24.657Z,72.28
2023-03-26T03:38:26.489Z,72.12
2023-03-26T03:39:28.140Z,72.27
2023-03-26T03:40:29.732Z,72.34
2023-03-26T03:41:31.373Z,71.85
2023-03-26T03:42:33.468Z,71.55
2023-03-26T03:43:35.273Z,71.18
2023-03-26T03:44:36.872Z,70.75
2023-03-26T03:45:38.516Z,70.38
2023-03-26T03:46:40.454Z,70.11
2023-03-26T03:47:42.903Z,69.85
2023-03-26T03:48:49.695Z,69.50
2023-03-26T03:49:51.896Z,69.45
2023-03-26T03:50:54.343Z,69.23
2023-03-26T03:51:55.939Z,68.78
2023-03-26T03:52:59.381Z,68.68
2023-03-26T03:54:01.250Z,68.39
2023-03-26T03:55:03.091Z,68.22
2023-03-26T03:56:10.207Z,67.87
2023-03-26T03:57:12.080Z,67.66
2023-03-26T03:58:14.101Z,67.62
2023-03-26T03:59:15.785Z,67.53
2023-03-26T04:00:17.842Z,67.20
2023-03-26T04:01:22.925Z,67.14
2023-03-26T04:02:30.496Z,66.89
2023-03-26T04:03:38.527Z,66.73
2023-03-26T04:04:40.521Z,66.88
2023-03-26T04:05:43.792Z,66.79
2023-03-26T04:06:45.605Z,66.71
2023-03-26T04:07:47.203Z,66.65
2023-03-26T04:08:48.885Z,66.47
2023-03-26T04:09:50.841Z,66.69
2023-03-26T04:10:52.588Z,66.65
2023-03-26T04:11:54.229Z,66.39
2023-03-26T04:12:55.860Z,66.48
2023-03-26T04:13:57.511Z,66.47
2023-03-26T04:14:59.361Z,66.33
2023-03-26T04:16:01.092Z,66.01
2023-03-26T04:17:05.389Z,65.96
2023-03-26T04:18:10.511Z,65.84
2023-03-26T04:19:14.433Z,65.74
2023-03-26T04:20:16.257Z,65.69
2023-03-26T04:21:17.944Z,65.59
2023-03-26T04:22:19.685Z,65.80
2023-03-26T04:23:22.528Z,65.71
2023-03-26T04:24:24.584Z,65.66
2023-03-26T04:25:30.487Z,65.55
2023-03-26T04:26:32.130Z,65.44
2023-03-26T04:27:35.564Z,65.35
2023-03-26T04:28:55.401Z,65.06
2023-03-26T04:29:58.244Z,65.09
2023-03-26T04:31:01.783Z,64.68
2023-03-26T04:32:06.812Z,64.49
2023-03-26T04:33:09.245Z,64.33
2023-03-26T04:34:18.716Z,64.30
2023-03-26T04:35:20.520Z,64.14
2023-03-26T04:36:29.684Z,64.00
2023-03-26T04:37:34.670Z,63.83
2023-03-26T04:38:49.048Z,63.83
2023-03-26T04:39:50.670Z,63.72
2023-03-26T04:40:52.318Z,63.53
2023-03-26T04:41:54.252Z,63.45
2023-03-26T04:42:58.390Z,63.38
2023-03-26T04:44:02.046Z,63.42
2023-03-26T04:45:05.819Z,63.00
2023-03-26T04:46:07.591Z,62.54
2023-03-26T04:47:09.232Z,62.02
2023-03-26T04:48:14.406Z,61.42
2023-03-26T04:49:16.034Z,60.73
2023-03-26T04:50:17.750Z,60.09
2023-03-26T04:51:21.994Z,59.36
2023-03-26T04:52:23.677Z,58.68
2023-03-26T04:53:25.271Z,58.41
2023-03-26T04:54:26.865Z,58.18
2023-03-26T04:55:38.725Z,57.68
2023-03-26T04:56:58.292Z,57.19
2023-03-26T04:58:00.295Z,56.95
2023-03-26T04:59:02.111Z,56.33
2023-03-26T05:00:12.028Z,55.98
2023-03-26T05:01:13.948Z,56.51
2023-03-26T05:02:15.746Z,56.78
2023-03-26T05:03:17.386Z,56.66
2023-03-26T05:04:19.075Z,56.08
2023-03-26T05:05:20.906Z,55.54
2023-03-26T05:06:22.560Z,55.62
2023-03-26T05:07:24.263Z,55.27
2023-03-26T05:08:26.965Z,55.41
2023-03-26T05:09:28.733Z,56.04
2023-03-26T05:10:30.394Z,56.90
2023-03-26T05:11:32.114Z,57.42
2023-03-26T05:12:33.857Z,57.85
2023-03-26T05:13:35.680Z,59.13
2023-03-26T05:14:37.262Z,59.82
2023-03-26T05:15:38.872Z,61.11
2023-03-26T05:16:41.471Z,61.87
2023-03-26T05:17:43.269Z,63.21
2023-03-26T05:18:44.924Z,63.82
2023-03-26T05:19:47.128Z,64.83
2023-03-26T05:20:48.910Z,65.58
2023-03-26T05:21:50.748Z,65.45
2023-03-26T05:22:52.376Z,66.01
2023-03-26T05:23:54.013Z,66.57
2023-03-26T05:24:56.333Z,66.95
2023-03-26T05:25:57.954Z,67.04
2023-03-26T05:26:59.582Z,67.26
2023-03-26T05:28:01.750Z,67.29
2023-03-26T05:29:03.836Z,67.06
2023-03-26T05:30:06.305Z,67.41
2023-03-26T05:31:08.377Z,67.71
2023-03-26T05:32:10.389Z,67.84
2023-03-26T05:33:12.068Z,68.22
2023-03-26T05:34:13.889Z,68.79
2023-03-26T05:35:17.273Z,68.89
2023-03-26T05:36:19.274Z,69.08
2023-03-26T05:37:24.560Z,69.23
2023-03-26T05:38:27.550Z,69.11
2023-03-26T05:39:29.998Z,68.92
2023-03-26T05:40:31.597Z,69.38
2023-03-26T05:41:33.254Z,69.42
2023-03-26T05:42:34.843Z,69.59
2023-03-26T05:43:36.446Z,69.94
2023-03-26T05:44:38.089Z,70.37
2023-03-26T05:45:39.713Z,70.38
2023-03-26T05:46:41.389Z,70.43
2023-03-26T05:47:43.313Z,70.81
2023-03-26T05:48:45.015Z,70.55
2023-03-26T05:49:47.101Z,69.66
2023-03-26T05:50:49.942Z,69.41
2023-03-26T05:51:52.739Z,68.87
2023-03-26T05:52:55.390Z,67.13
2023-03-26T05:53:57.015Z,64.73
2023-03-26T05:54:58.679Z,62.71
2023-03-26T05:56:00.881Z,60.76
2023-03-26T05:57:02.610Z,59.05
2023-03-26T05:58:04.247Z,57.48
2023-03-26T05:59:06.809Z,56.48
2023-03-26T06:00:12.243Z,57.30
2023-03-26T06:01:17.157Z,56.93
2023-03-26T06:02:19.168Z,56.53
2023-03-26T06:03:23.192Z,56.17
2023-03-26T06:04:25.067Z,56.11
2023-03-26T06:05:26.961Z,55.56
2023-03-26T06:06:28.612Z,56.13
2023-03-26T06:07:31.341Z,56.35
2023-03-26T06:08:33.551Z,56.93
2023-03-26T06:09:35.145Z,57.34
2023-03-26T06:10:39.892Z,57.22
2023-03-26T06:11:41.977Z,57.15
2023-03-26T06:12:43.659Z,57.41
2023-03-26T06:13:45.447Z,57.64
2023-03-26T06:14:47.334Z,57.89
2023-03-26T06:15:48.996Z,57.85
2023-03-26T06:16:50.720Z,58.02
2023-03-26T06:17:52.399Z,58.35
2023-03-26T06:18:56.831Z,58.41
2023-03-26T06:19:59.022Z,59.01
2023-03-26T06:21:00.595Z,59.45
2023-03-26T06:22:02.189Z,59.07
2023-03-26T06:23:03.844Z,58.97
2023-03-26T06:24:05.894Z,58.86
2023-03-26T06:25:07.896Z,59.09
2023-03-26T06:26:09.537Z,57.31
2023-03-26T06:27:11.134Z,56.44
2023-03-26T06:28:12.998Z,56.92
2023-03-26T06:29:14.823Z,56.69
2023-03-26T06:30:16.531Z,56.61
2023-03-26T06:31:19.399Z,58.07
2023-03-26T06:32:21.259Z,58.50
2023-03-26T06:33:24.625Z,58.70
2023-03-26T06:34:26.444Z,58.75
2023-03-26T06:35:29.968Z,57.75
2023-03-26T06:36:31.652Z,57.98
2023-03-26T06:37:33.308Z,58.35
2023-03-26T06:38:34.908Z,59.14
2023-03-26T06:39:36.529Z,59.58
2023-03-26T06:40:38.205Z,60.36
2023-03-26T06:41:40.258Z,60.62
2023-03-26T06:43:09.940Z,60.99
2023-03-26T06:44:04.085Z,61.14
2023-03-26T06:45:06.394Z,61.55
2023-03-26T06:46:08.084Z,61.69
2023-03-26T06:47:09.728Z,62.35
2023-03-26T06:48:11.345Z,62.49
2023-03-26T06:49:12.933Z,62.96
2023-03-26T06:50:15.333Z,63.25
2023-03-26T06:51:16.950Z,63.67
2023-03-26T06:52:18.556Z,64.04
2023-03-26T06:53:20.344Z,63.46
2023-03-26T06:54:21.982Z,63.74
2023-03-26T06:55:24.740Z,63.82
2023-03-26T06:56:26.352Z,63.85
2023-03-26T06:57:28.011Z,64.53
2023-03-26T06:58:30.040Z,65.06
2023-03-26T06:59:31.740Z,65.49
2023-03-26T07:00:34.682Z,65.72
2023-03-26T07:01:36.359Z,65.72
2023-03-26T07:02:38.111Z,65.40
2023-03-26T07:03:39.992Z,65.06
2023-03-26T07:04:41.695Z,65.06
2023-03-26T07:05:43.514Z,65.45
2023-03-26T07:06:46.030Z,64.98
2023-03-26T07:07:47.722Z,65.52
2023-03-26T07:08:49.375Z,66.23
2023-03-26T07:09:51.514Z,66.80
2023-03-26T07:10:53.480Z,66.86
2023-03-26T07:11:55.495Z,66.87
2023-03-26T07:12:57.128Z,66.99
2023-03-26T07:13:59.617Z,66.60
2023-03-26T07:15:02.013Z,66.43
2023-03-26T07:16:03.944Z,65.99
2023-03-26T07:17:05.807Z,66.10
2023-03-26T07:18:07.432Z,65.33
2023-03-26T07:19:09.074Z,65.08
2023-03-26T07:20:11.263Z,63.49
2023-03-26T07:21:13.367Z,63.28
2023-03-26T07:22:19.554Z,62.85
2023-03-26T07:23:21.567Z,62.37
2023-03-26T07:24:23.520Z,61.01
2023-03-26T07:25:25.970Z,61.09
2023-03-26T07:26:42.738Z,60.30
2023-03-26T07:27:56.485Z,60.02
2023-03-26T07:29:09.371Z,60.06
2023-03-26T07:30:41.018Z,59.86
2023-03-26T07:31:45.707Z,59.66
2023-03-26T07:33:02.091Z,59.72
2023-03-26T07:34:31.692Z,59.64
2023-03-26T07:35:43.103Z,59.62
2023-03-26T07:36:52.584Z,59.83
2023-03-26T07:37:56.809Z,59.52
2023-03-26T07:39:00.266Z,58.53
2023-03-26T07:40:22.341Z,58.21
2023-03-26T07:41:39.649Z,57.71
2023-03-26T07:43:01.516Z,57.14
2023-03-26T07:44:12.356Z,56.69
2023-03-26T07:45:20.099Z,56.93
2023-03-26T07:46:27.298Z,56.80
2023-03-26T07:47:30.282Z,56.60
2023-03-26T07:48:42.384Z,57.34
2023-03-26T07:49:44.837Z,58.03
2023-03-26T07:50:47.147Z,58.36
2023-03-26T07:51:49.148Z,58.36
2023-03-26T07:52:51.104Z,57.88
2023-03-26T07:53:53.026Z,57.20
2023-03-26T07:54:54.936Z,56.65
2023-03-26T07:56:16.104Z,56.50
2023-03-26T07:57:50.869Z,57.10
2023-03-26T07:59:14.006Z,57.26
2023-03-26T08:00:19.914Z,56.84
2023-03-26T08:01:28.314Z,56.84
2023-03-26T08:02:29.971Z,56.89
2023-03-26T08:03:36.047Z,56.48
2023-03-26T08:04:46.940Z,56.73
2023-03-26T08:06:06.116Z,56.91
2023-03-26T08:07:07.685Z,56.57
2023-03-26T08:09:01.732Z,56.43
2023-03-26T08:10:39.170Z,56.94
2023-03-26T08:11:47.760Z,56.88
2023-03-26T08:13:07.701Z,56.65
2023-03-26T08:14:30.562Z,57.23
2023-03-26T08:16:00.506Z,57.07
2023-03-26T08:17:08.335Z,56.95
2023-03-26T08:18:35.266Z,56.38
2023-03-26T08:19:58.772Z,55.17
2023-03-26T08:21:17.052Z,55.57
2023-03-26T08:22:34.325Z,54.89
2023-03-26T08:23:50.424Z,55.87
2023-03-26T08:25:29.742Z,54.78
2023-03-26T08:26:41.459Z,55.32
2023-03-26T08:27:48.106Z,54.82
2023-03-26T08:29:03.928Z,54.43
2023-03-26T08:30:18.224Z,54.33
2023-03-26T08:31:19.943Z,54.68
2023-03-26T08:32:22.080Z,54.67
2023-03-26T08:33:25.957Z,54.74
2023-03-26T08:34:27.564Z,54.64
2023-03-26T08:35:29.712Z,53.49
2023-03-26T08:36:31.833Z,53.31
2023-03-26T08:37:33.493Z,53.27
2023-03-26T08:38:35.114Z,53.68
2023-03-26T08:39:38.883Z,52.54
2023-03-26T08:41:08.204Z,52.11
2023-03-26T08:42:19.050Z,52.08
2023-03-26T08:43:39.373Z,52.58
2023-03-26T08:44:55.873Z,53.34
2023-03-26T08:46:34.908Z,53.24
2023-03-26T08:48:10.607Z,52.75
2023-03-26T08:49:34.181Z,53.30
2023-03-26T08:50:44.463Z,53.41
2023-03-26T08:52:04.479Z,54.19
2023-03-26T08:53:39.886Z,53.92
2023-03-26T08:55:19.603Z,53.34
2023-03-26T08:56:32.385Z,53.27
2023-03-26T08:57:42.156Z,53.44
2023-03-26T08:59:20.109Z,53.31
2023-03-26T09:00:37.761Z,53.35
2023-03-26T09:01:57.705Z,53.85
2023-03-26T09:03:14.390Z,54.31
2023-03-26T09:04:19.021Z,55.69
2023-03-26T09:05:26.397Z,55.10
2023-03-26T09:06:49.844Z,54.76
2023-03-26T09:08:30.381Z,53.50
2023-03-26T09:09:53.812Z,52.58
2023-03-26T09:11:04.145Z,52.86
2023-03-26T09:12:33.151Z,53.03
2023-03-26T09:14:02.372Z,53.28
2023-03-26T09:15:22.148Z,53.89
2023-03-26T09:16:45.014Z,54.69
2023-03-26T09:18:05.861Z,54.81
2023-03-26T09:19:25.713Z,54.48
2023-03-26T09:20:39.514Z,54.13
2023-03-26T09:22:02.771Z,52.99
2023-03-26T09:23:24.069Z,52.63
2023-03-26T09:24:34.726Z,52.49
2023-03-26T09:25:42.967Z,52.73
2023-03-26T09:27:31.630Z,52.59
2023-03-26T09:29:10.905Z,51.35
2023-03-26T09:30:27.594Z,49.34
2023-03-26T09:31:57.987Z,48.23
2023-03-26T09:33:07.393Z,49.83
2023-03-26T09:34:18.027Z,49.23
2023-03-26T09:35:46.950Z,50.16
2023-03-26T09:37:02.664Z,51.02
2023-03-26T09:38:25.923Z,50.97
2023-03-26T09:39:39.181Z,50.28
2023-03-26T09:40:44.654Z,48.22
2023-03-26T09:42:09.224Z,48.64
2023-03-26T09:43:48.802Z,49.13
2023-03-26T09:45:13.709Z,50.28
2023-03-26T09:46:33.526Z,50.55
2023-03-26T09:47:50.483Z,49.50
2023-03-26T09:49:17.708Z,49.44
2023-03-26T09:50:29.761Z,49.12
2023-03-26T09:51:49.854Z,49.14
2023-03-26T09:53:18.740Z,50.18
2023-03-26T09:54:35.406Z,50.99
2023-03-26T09:55:59.366Z,50.72
2023-03-26T09:57:36.565Z,50.81
2023-03-26T09:58:42.004Z,50.76
2023-03-26T10:00:11.193Z,53.34
2023-03-26T10:01:25.221Z,54.05
2023-03-26T10:02:49.439Z,54.08
2023-03-26T10:04:01.825Z,53.57
2023-03-26T10:05:28.056Z,54.62
2023-03-26T10:06:42.617Z,53.03
2023-03-26T10:07:50.532Z,53.42
2023-03-26T10:08:54.385Z,53.54
2023-03-26T10:10:04.392Z,52.62
2023-03-26T10:11:20.346Z,53.14
2023-03-26T10:12:28.034Z,54.36
2023-03-26T10:13:35.774Z,53.06
2023-03-26T10:15:14.797Z,54.43
2023-03-26T10:16:52.864Z,53.59
2023-03-26T10:18:27.550Z,51.39
2023-03-26T10:19:49.810Z,51.24
2023-03-26T10:21:19.187Z,50.45
2023-03-26T10:22:27.097Z,51.02
2023-03-26T10:24:19.088Z,48.10
2023-03-26T10:25:43.318Z,49.06
2023-03-26T10:27:15.743Z,49.49
2023-03-26T10:28:51.015Z,49.51
2023-03-26T10:30:14.408Z,50.33
2023-03-26T10:31:42.868Z,51.30
2023-03-26T10:32:51.346Z,51.15
2023-03-26T10:34:28.833Z,50.06
2023-03-26T10:35:40.577Z,48.09
2023-03-26T10:37:01.403Z,47.40
2023-03-26T10:38:29.113Z,46.64
2023-03-26T10:39:49.601Z,45.44
2023-03-26T10:41:32.548Z,44.12
2023-03-26T10:42:40.813Z,44.07
2023-03-26T10:44:01.279Z,44.76
2023-03-26T10:45:46.646Z,44.25
2023-03-26T10:47:11.295Z,44.42
2023-03-26T10:48:25.128Z,44.04
2023-03-26T10:49:53.957Z,45.06
2023-03-26T10:50:58.242Z,44.65
2023-03-26T10:52:02.487Z,45.03
2023-03-26T10:53:20.858Z,43.64
2023-03-26T10:54:58.068Z,43.75
2023-03-26T10:56:03.109Z,43.23
2023-03-26T10:57:33.025Z,42.87
2023-03-26T10:58:48.338Z,42.97
2023-03-26T10:59:54.189Z,42.19
2023-03-26T11:01:06.999Z,42.03
2023-03-26T11:02:31.235Z,42.10
2023-03-26T11:03:51.989Z,42.61
2023-03-26T11:05:26.079Z,43.45
2023-03-26T11:06:58.650Z,44.45
2023-03-26T11:08:06.466Z,43.11
2023-03-26T11:09:26.273Z,43.81
2023-03-26T11:10:42.915Z,43.98
2023-03-26T11:11:49.628Z,44.33
2023-03-26T11:13:03.382Z,43.77
2023-03-26T11:14:24.276Z,43.20
2023-03-26T11:15:40.590Z,43.92
2023-03-26T11:16:54.681Z,43.97
2023-03-26T11:18:23.740Z,44.63
2023-03-26T11:19:28.081Z,44.03
2023-03-26T11:20:41.478Z,45.40
2023-03-26T11:22:03.676Z,44.99
2023-03-26T11:23:22.470Z,45.19
2023-03-26T11:25:06.615Z,45.30
2023-03-26T11:26:17.030Z,44.56
2023-03-26T11:27:44.143Z,43.77
2023-03-26T11:29:05.623Z,44.28
2023-03-26T11:30:32.577Z,44.54
2023-03-26T11:32:03.243Z,44.01
2023-03-26T11:33:06.895Z,43.69
2023-03-26T11:34:13.667Z,43.97
2023-03-26T11:35:39.570Z,42.44
2023-03-26T11:36:46.981Z,41.69
2023-03-26T11:37:52.328Z,40.55
2023-03-26T11:38:54.816Z,39.76
2023-03-26T11:39:56.996Z,39.98
2023-03-26T11:40:59.095Z,41.37
2023-03-26T11:42:11.334Z,39.72
2023-03-26T11:43:13.061Z,39.67
2023-03-26T11:44:41.988Z,40.22
2023-03-26T11:45:46.774Z,39.88
2023-03-26T11:46:49.722Z,40.54
2023-03-26T11:48:09.511Z,39.74
2023-03-26T11:49:12.887Z,37.51
2023-03-26T11:50:22.695Z,37.69
2023-03-26T11:51:34.429Z,37.01
2023-03-26T11:52:36.992Z,37.19
2023-03-26T11:53:38.999Z,37.12
2023-03-26T11:54:40.737Z,36.96
2023-03-26T11:55:46.973Z,37.03
2023-03-26T11:57:05.121Z,37.67
2023-03-26T11:58:16.012Z,37.41
2023-03-26T11:59:27.350Z,36.21
2023-03-26T12:00:29.764Z,35.54
2023-03-26T12:01:59.808Z,35.49
2023-03-26T12:03:01.639Z,34.06
2023-03-26T12:04:07.156Z,34.47
2023-03-26T12:05:26.856Z,34.58
2023-03-26T12:06:29.413Z,34.97
2023-03-26T12:07:33.273Z,35.60
2023-03-26T12:08:38.576Z,35.33
2023-03-26T12:10:17.854Z,35.36
2023-03-26T12:11:30.739Z,36.12
2023-03-26T12:12:36.671Z,35.78
2023-03-26T12:13:51.366Z,36.08
2023-03-26T12:14:52.984Z,36.26
2023-03-26T12:15:59.058Z,36.18
2023-03-26T12:17:06.738Z,36.29
2023-03-26T12:18:25.271Z,37.19
2023-03-26T12:19:29.089Z,37.24
2023-03-26T12:20:32.990Z,37.93
2023-03-26T12:21:48.449Z,36.82
2023-03-26T12:22:52.146Z,36.79
2023-03-26T12:23:57.961Z,37.31
2023-03-26T12:25:19.385Z,34.90
2023-03-26T12:26:30.403Z,34.47
2023-03-26T12:27:33.233Z,34.74
2023-03-26T12:28:35.325Z,34.08
2023-03-26T12:29:37.031Z,35.90
2023-03-26T12:30:39.903Z,36.85
2023-03-26T12:31:42.641Z,36.27
2023-03-26T12:32:46.729Z,35.98
2023-03-26T12:34:04.510Z,37.55
2023-03-26T12:35:07.560Z,38.59
2023-03-26T12:36:28.351Z,40.04
2023-03-26T12:37:40.864Z,39.40
2023-03-26T12:38:43.380Z,40.17
2023-03-26T12:40:09.885Z,39.29
2023-03-26T12:41:06.898Z,38.16
2023-03-26T12:44:46.609Z,37.71
2023-03-26T12:44:49.265Z,37.78
2023-03-26T12:45:13.716Z,37.64
2023-03-26T12:47:56.301Z,37.64
2023-03-26T12:48:04.239Z,38.20
2023-03-26T12:49:07.245Z,37.79
2023-03-26T12:50:14.660Z,38.49
2023-03-26T12:51:41.876Z,39.14
2023-03-26T12:53:18.128Z,39.03
2023-03-26T12:55:12.205Z,39.51
2023-03-26T12:56:27.415Z,38.71
2023-03-26T12:57:38.821Z,39.28
2023-03-26T12:58:56.658Z,39.02
2023-03-26T13:00:09.446Z,37.13
2023-03-26T13:01:36.409Z,36.89
2023-03-26T13:02:45.471Z,36.54
2023-03-26T13:04:26.403Z,36.67
2023-03-26T13:05:31.235Z,38.36
2023-03-26T13:06:59.232Z,38.88
2023-03-26T13:08:40.939Z,38.76
2023-03-26T13:10:04.129Z,39.72
2023-03-26T13:11:26.918Z,40.02
2023-03-26T13:12:28.843Z,39.87
2023-03-26T13:13:38.011Z,40.03
2023-03-26T13:15:17.816Z,40.27
2023-03-26T13:16:38.315Z,39.36
2023-03-26T13:17:57.546Z,39.46
2023-03-26T13:19:08.251Z,38.43
2023-03-26T13:20:21.544Z,39.61
2023-03-26T13:21:35.701Z,39.37
2023-03-26T13:22:50.247Z,39.30
2023-03-26T13:24:13.747Z,38.54
2023-03-26T13:25:24.070Z,38.76
2023-03-26T13:26:31.824Z,37.98
2023-03-26T13:27:51.616Z,37.68
2023-03-26T13:28:56.744Z,38.06
2023-03-26T13:30:13.500Z,37.63
2023-03-26T13:31:34.080Z,37.83
2023-03-26T13:32:58.861Z,37.87
2023-03-26T13:34:16.542Z,38.21
2023-03-26T13:35:43.009Z,39.44
2023-03-26T13:37:04.435Z,38.91
2023-03-26T13:38:10.312Z,38.74
2023-03-26T13:39:35.296Z,39.17
2023-03-26T13:40:58.353Z,38.77
2023-03-26T13:42:22.872Z,38.71
2023-03-26T13:43:36.622Z,38.37
2023-03-26T13:45:05.588Z,38.10
2023-03-26T13:46:39.882Z,38.10
2023-03-26T13:47:45.499Z,36.67
2023-03-26T13:49:02.329Z,36.07
2023-03-26T13:50:10.223Z,36.48
2023-03-26T13:51:29.127Z,36.89
2023-03-26T13:52:38.785Z,37.77
2023-03-26T13:53:43.782Z,38.31
2023-03-26T13:55:22.641Z,37.96
2023-03-26T13:56:28.664Z,38.05
2023-03-26T13:57:35.733Z,37.83
2023-03-26T13:58:47.572Z,37.55
2023-03-26T13:59:58.336Z,38.51
2023-03-26T14:01:20.527Z,38.54
2023-03-26T14:02:27.723Z,38.80
2023-03-26T14:03:50.208Z,38.71
2023-03-26T14:04:57.023Z,38.54
2023-03-26T14:06:01.402Z,38.66
2023-03-26T14:07:43.673Z,38.83
2023-03-26T14:08:47.443Z,38.95
2023-03-26T14:10:15.570Z,39.59
2023-03-26T14:11:21.096Z,39.14
2023-03-26T14:12:51.435Z,38.76
2023-03-26T14:13:56.928Z,38.87
2023-03-26T14:15:02.857Z,39.07
2023-03-26T14:16:17.073Z,39.18
2023-03-26T14:17:40.758Z,39.48
2023-03-26T14:18:52.735Z,39.75
2023-03-26T14:20:16.272Z,39.98
2023-03-26T14:21:51.179Z,39.75
2023-03-26T14:23:11.116Z,39.50
2023-03-26T14:25:03.422Z,39.26
2023-03-26T14:26:37.344Z,38.95
2023-03-26T14:27:52.104Z,38.31
2023-03-26T14:29:12.471Z,38.34
2023-03-26T14:30:38.548Z,38.22
2023-03-26T14:32:02.214Z,39.16
2023-03-26T14:33:26.972Z,37.28
2023-03-26T14:35:07.387Z,36.21
2023-03-26T14:36:18.276Z,35.66
2023-03-26T14:37:52.430Z,35.96
2023-03-26T14:39:05.894Z,35.90
2023-03-26T14:40:16.974Z,36.53
2023-03-26T14:41:30.288Z,36.81
2023-03-26T14:42:56.534Z,36.92
2023-03-26T14:44:04.342Z,36.85
2023-03-26T14:45:21.819Z,36.90
2023-03-26T14:46:44.726Z,37.13
2023-03-26T14:48:14.116Z,37.67
2023-03-26T14:49:34.579Z,38.31
2023-03-26T14:50:47.209Z,38.38
2023-03-26T14:52:18.920Z,38.21
2023-03-26T14:53:30.198Z,36.80
2023-03-26T14:54:34.141Z,36.91
2023-03-26T14:55:54.369Z,36.76
2023-03-26T14:57:44.987Z,36.52
2023-03-26T14:59:05.682Z,36.70
2023-03-26T15:00:35.756Z,37.09